Time;durP1;ratioP1;P1;durP2;ratioP2;P2;SDS_P1;SDS_P2;PMS_P1;PMS_P2;Temp;Humidity;BMP_temperature;BMP_pressure;BME280_temperature;BME280_humidity;BME280_pressure;Samples;Min_cycle;Max_cycle;Signal;HPM_P1;HPM_P2
2023/06/30 00:01:28;;;;;;;39.70;23.40;;;;;;;19.16;97.39;100780.97;5038215;28;20048;-63
2023/06/30 00:03:54;;;;;;;37.33;23.50;;;;;;;19.07;98.27;100788.31;5036934;28;20625;-63
2023/06/30 00:06:19;;;;;;;49.55;25.05;;;;;;;18.99;99.22;100785.19;5036308;28;20039;-63
2023/06/30 00:08:45;;;;;;;44.88;27.00;;;;;;;18.94;100.00;100788.88;5035470;28;20102;-64
2023/06/30 00:11:10;;;;;;;47.83;27.50;;;;;;;18.84;100.00;100796.28;5036672;28;20037;-63
2023/06/30 00:13:36;;;;;;;52.35;28.38;;;;;;;18.78;100.00;100779.94;5036869;28;20048;-63
2023/06/30 00:16:01;;;;;;;43.28;25.67;;;;;;;18.76;100.00;100782.63;5037508;28;20036;-63
2023/06/30 00:18:29;;;;;;;41.33;25.10;;;;;;;18.64;100.00;100788.34;5032968;28;20029;-63
2023/06/30 00:20:54;;;;;;;35.92;22.85;;;;;;;18.56;100.00;100787.81;5038062;28;20696;-63
2023/06/30 00:23:20;;;;;;;27.83;19.80;;;;;;;18.44;100.00;100788.31;5038025;28;20032;-62
2023/06/30 00:25:46;;;;;;;22.75;16.92;;;;;;;18.29;100.00;100781.06;5024881;28;20041;-63
2023/06/30 00:28:11;;;;;;;24.25;16.73;;;;;;;18.24;100.00;100781.28;5038402;28;20040;-63
2023/06/30 00:30:37;;;;;;;19.95;15.55;;;;;;;18.13;100.00;100780.84;5037133;28;20029;-63
2023/06/30 00:33:03;;;;;;;18.50;15.65;;;;;;;18.04;100.00;100777.72;5034059;28;20033;-63
2023/06/30 00:35:29;;;;;;;17.45;15.55;;;;;;;17.99;100.00;100779.69;5036373;28;20091;-63
2023/06/30 00:37:55;;;;;;;17.90;15.45;;;;;;;17.98;100.00;100781.44;5037034;28;20049;-63
2023/06/30 00:40:20;;;;;;;13.70;12.13;;;;;;;17.94;100.00;100777.22;5037857;28;20037;-63
2023/06/30 00:42:45;;;;;;;11.65;9.90;;;;;;;17.88;100.00;100783.56;5037705;28;20056;-63
2023/06/30 00:45:11;;;;;;;9.57;8.15;;;;;;;17.83;100.00;100777.63;5036768;28;20036;-62
2023/06/30 00:47:36;;;;;;;9.15;7.90;;;;;;;17.79;100.00;100785.63;5024010;28;20033;-63
2023/06/30 00:50:03;;;;;;;9.25;7.28;;;;;;;17.77;100.00;100790.91;5034543;28;20166;-63
2023/06/30 00:52:29;;;;;;;11.38;7.47;;;;;;;17.76;100.00;100794.44;5036018;28;20766;-62
2023/06/30 00:54:54;;;;;;;6.78;4.97;;;;;;;17.72;100.00;100798.06;5038508;28;20044;-62
2023/06/30 00:57:19;;;;;;;7.82;5.00;;;;;;;17.67;100.00;100802.63;5037173;28;20029;-62
2023/06/30 00:59:45;;;;;;;6.18;4.72;;;;;;;17.65;100.00;100795.75;5037602;28;20707;-62
2023/06/30 01:02:24;;;;;;;5.57;3.90;;;;;;;17.62;100.00;100795.84;5037321;28;20045;-62
2023/06/30 01:05:08;;;;;;;3.85;3.13;;;;;;;17.57;100.00;100793.44;5035066;28;20044;-62
2023/06/30 01:07:48;;;;;;;3.42;3.08;;;;;;;17.54;100.00;100804.00;5035927;28;20147;-62
2023/06/30 01:10:19;;;;;;;3.13;2.50;;;;;;;17.45;100.00;100804.31;5036562;28;20121;-62
2023/06/30 01:12:45;;;;;;;3.72;2.03;;;;;;;17.41;100.00;100813.16;5037648;28;20032;-63
2023/06/30 01:15:12;;;;;;;4.25;2.30;;;;;;;17.38;100.00;100815.88;5034851;28;20028;-62
2023/06/30 01:17:45;;;;;;;3.10;2.67;;;;;;;17.40;100.00;100806.22;5033733;28;20040;-63
2023/06/30 01:20:13;;;;;;;4.78;3.90;;;;;;;17.45;100.00;100804.31;5034037;28;20033;-63
2023/06/30 01:22:44;;;;;;;5.90;4.60;;;;;;;17.38;100.00;100798.44;5037714;28;20052;-62
2023/06/30 01:25:13;;;;;;;4.15;3.47;;;;;;;17.29;100.00;100784.84;5035505;28;20762;-62
2023/06/30 01:27:40;;;;;;;6.38;4.13;;;;;;;17.21;100.00;100790.38;5038923;28;20039;-63
2023/06/30 01:30:06;;;;;;;3.88;3.25;;;;;;;17.17;100.00;100785.28;5039568;28;20032;-62
2023/06/30 01:32:33;;;;;;;3.63;3.03;;;;;;;17.16;100.00;100792.25;5032783;28;20044;-62
2023/06/30 01:34:58;;;;;;;3.78;3.38;;;;;;;17.14;100.00;100791.47;5034854;28;20052;-62
2023/06/30 01:37:24;;;;;;;8.30;4.55;;;;;;;17.17;100.00;100787.91;5035257;28;20060;-63
2023/06/30 01:39:49;;;;;;;8.18;5.03;;;;;;;17.19;100.00;100799.13;5034036;28;20116;-63
2023/06/30 01:42:15;;;;;;;9.02;7.28;;;;;;;17.17;100.00;100800.97;5037750;28;20072;-63
2023/06/30 01:44:41;;;;;;;10.32;8.45;;;;;;;17.17;100.00;100799.19;5035554;28;20037;-62
2023/06/30 01:47:09;;;;;;;11.30;9.10;;;;;;;17.16;100.00;100807.06;5037705;28;20453;-63
2023/06/30 01:49:35;;;;;;;10.48;8.95;;;;;;;17.12;100.00;100808.09;5033681;28;20045;-63
2023/06/30 01:52:01;;;;;;;12.05;10.32;;;;;;;17.07;100.00;100810.88;5031039;28;20040;-62
2023/06/30 01:54:26;;;;;;;10.23;9.20;;;;;;;17.09;100.00;100813.44;5036051;28;20592;-63
2023/06/30 01:56:52;;;;;;;9.27;7.97;;;;;;;17.00;100.00;100819.81;5035891;28;20055;-63
2023/06/30 01:59:17;;;;;;;9.40;7.90;;;;;;;16.86;100.00;100822.03;5038942;28;20029;-62
2023/06/30 02:01:43;;;;;;;11.05;8.82;;;;;;;16.82;100.00;100823.91;5038455;28;20530;-63
2023/06/30 02:04:11;;;;;;;13.02;10.48;;;;;;;16.72;100.00;100827.69;5036817;28;20033;-63
2023/06/30 02:06:37;;;;;;;12.35;10.68;;;;;;;16.73;100.00;100832.00;5038351;28;20048;-63
2023/06/30 02:09:02;;;;;;;14.48;10.68;;;;;;;16.74;100.00;100825.03;5041536;28;20032;-62
2023/06/30 02:11:27;;;;;;;13.75;10.30;;;;;;;16.72;100.00;100829.44;5040631;28;20410;-62
2023/06/30 02:13:53;;;;;;;14.52;11.02;;;;;;;16.71;100.00;100828.56;5038444;28;20044;-62
2023/06/30 02:16:18;;;;;;;14.30;11.98;;;;;;;16.72;100.00;100829.44;5041470;28;20032;-63
2023/06/30 02:18:44;;;;;;;14.38;10.48;;;;;;;16.67;100.00;100834.81;5035995;28;20037;-62
2023/06/30 02:21:09;;;;;;;12.70;9.18;;;;;;;16.54;100.00;100830.88;5046070;28;20533;-63
2023/06/30 02:23:34;;;;;;;9.10;6.47;;;;;;;16.45;100.00;100835.53;5044214;28;20103;-63
2023/06/30 02:26:00;;;;;;;9.05;6.68;;;;;;;16.42;100.00;100846.91;5048845;28;20052;-63
2023/06/30 02:28:25;;;;;;;9.80;5.80;;;;;;;16.38;100.00;100842.72;5045183;28;20033;-63
2023/06/30 02:30:50;;;;;;;9.38;5.47;;;;;;;16.32;100.00;100841.13;5042671;28;20099;-63
2023/06/30 02:33:16;;;;;;;7.80;5.05;;;;;;;16.31;100.00;100839.44;5024428;28;20053;-63
2023/06/30 02:35:41;;;;;;;10.68;5.70;;;;;;;16.28;100.00;100839.53;5043175;28;20048;-63
2023/06/30 02:38:07;;;;;;;7.10;4.60;;;;;;;16.25;100.00;100839.63;5047837;28;20689;-63
2023/06/30 02:40:32;;;;;;;6.57;5.28;;;;;;;16.20;100.00;100838.91;5046107;28;20029;-64
2023/06/30 02:42:58;;;;;;;6.03;4.53;;;;;;;16.18;100.00;100850.25;5044300;28;20588;-64
2023/06/30 02:45:24;;;;;;;6.50;4.95;;;;;;;16.14;100.00;100848.66;5047982;28;20037;-64
2023/06/30 02:47:49;;;;;;;11.07;4.68;;;;;;;16.12;100.00;100846.09;5039520;28;20040;-63
2023/06/30 02:50:15;;;;;;;9.02;3.97;;;;;;;16.12;100.00;100848.69;5038541;28;20044;-63
2023/06/30 02:52:40;;;;;;;8.07;4.53;;;;;;;16.09;100.00;100856.59;5042641;28;20037;-63
2023/06/30 02:55:06;;;;;;;7.47;4.50;;;;;;;16.12;100.00;100850.44;5043299;28;20707;-63
2023/06/30 02:57:31;;;;;;;7.28;4.82;;;;;;;16.12;100.00;100846.09;5028480;28;20039;-63
2023/06/30 02:59:57;;;;;;;10.43;6.30;;;;;;;16.12;100.00;100853.06;5040923;28;20043;-63
2023/06/30 03:02:22;;;;;;;12.10;6.78;;;;;;;16.14;100.00;100859.09;5038905;28;20068;-63
2023/06/30 03:04:47;;;;;;;12.93;7.00;;;;;;;16.17;100.00;100859.88;5036170;28;20119;-62
2023/06/30 03:07:13;;;;;;;13.95;7.85;;;;;;;16.13;100.00;100860.84;5040781;28;20033;-63
2023/06/30 03:09:38;;;;;;;18.98;10.25;;;;;;;16.11;100.00;100860.03;5039554;28;20158;-63
2023/06/30 03:12:04;;;;;;;17.75;9.85;;;;;;;16.09;100.00;100858.34;5039020;28;20501;-63
2023/06/30 03:14:29;;;;;;;17.88;10.68;;;;;;;16.06;100.00;100866.25;5038778;28;20033;-63
2023/06/30 03:16:55;;;;;;;18.02;11.45;;;;;;;16.04;100.00;100857.66;5037920;28;20029;-63
2023/06/30 03:19:20;;;;;;;17.13;10.30;;;;;;;16.04;100.00;100857.66;5018765;28;20131;-63
2023/06/30 03:21:45;;;;;;;19.35;12.05;;;;;;;16.05;100.00;100859.38;5037396;28;20138;-63
2023/06/30 03:24:11;;;;;;;19.48;11.30;;;;;;;16.02;100.00;100859.44;5040926;28;20116;-63
2023/06/30 03:26:36;;;;;;;17.25;10.95;;;;;;;16.04;100.00;100855.91;5034265;28;20037;-62
2023/06/30 03:29:01;;;;;;;23.13;13.30;;;;;;;16.02;100.00;100854.25;5040114;28;20033;-63
2023/06/30 03:31:30;;;;;;;17.40;12.85;;;;;;;16.01;100.00;100857.72;5023305;28;20037;-62
2023/06/30 03:33:55;;;;;;;22.80;14.07;;;;;;;16.02;100.00;100862.06;5039231;28;20494;-63
2023/06/30 03:36:20;;;;;;;21.20;13.15;;;;;;;16.04;100.00;100865.47;5036870;28;20040;-63
2023/06/30 03:38:46;;;;;;;23.75;16.15;;;;;;;16.03;100.00;100863.75;5040165;28;20551;-62
2023/06/30 03:41:11;;;;;;;25.23;16.65;;;;;;;16.02;100.00;100864.66;5040008;28;20518;-62
2023/06/30 03:43:37;;;;;;;21.98;15.20;;;;;;;15.98;100.00;100869.09;5038261;28;20068;-62
2023/06/30 03:46:02;;;;;;;20.48;14.40;;;;;;;15.90;100.00;100868.47;5038937;28;20037;-62
2023/06/30 03:48:27;;;;;;;20.48;14.05;;;;;;;15.89;100.00;100873.72;5042048;28;20040;-62
2023/06/30 03:50:53;;;;;;;23.42;13.07;;;;;;;15.86;100.00;100864.25;5044583;28;20584;-62
2023/06/30 03:53:20;;;;;;;19.63;14.35;;;;;;;15.79;100.00;100867.91;5001952;28;20773;-63
2023/06/30 03:55:45;;;;;;;20.33;12.60;;;;;;;15.75;100.00;100871.50;5039058;28;20033;-63
2023/06/30 03:58:11;;;;;;;17.40;11.90;;;;;;;15.76;100.00;100868.84;5039440;28;20041;-62
2023/06/30 04:00:36;;;;;;;18.08;11.10;;;;;;;15.74;100.00;100860.22;5040112;28;20056;-62
2023/06/30 04:03:01;;;;;;;21.15;10.98;;;;;;;15.71;100.00;100865.53;5035733;28;20642;-62
2023/06/30 04:05:27;;;;;;;21.77;10.70;;;;;;;15.72;100.00;100869.00;5038128;28;20037;-63
2023/06/30 04:07:52;;;;;;;19.50;10.75;;;;;;;15.66;100.00;100874.38;5039426;28;20044;-63
2023/06/30 04:10:18;;;;;;;19.80;10.00;;;;;;;15.64;100.00;100868.34;5044789;28;20032;-63
2023/06/30 04:12:43;;;;;;;18.88;11.10;;;;;;;15.63;100.00;100871.84;5035171;28;20036;-62
2023/06/30 04:15:10;;;;;;;20.33;10.43;;;;;;;15.61;100.00;100876.22;5039778;28;20036;-63
2023/06/30 04:17:36;;;;;;;22.52;10.68;;;;;;;15.59;100.00;100886.69;5038801;28;20033;-63
2023/06/30 04:20:08;;;;;;;20.17;10.80;;;;;;;15.58;100.00;100877.13;5039157;28;20835;-63
2023/06/30 04:22:35;;;;;;;22.33;10.98;;;;;;;15.58;100.00;100876.31;5022808;28;20045;-65
2023/06/30 04:25:00;;;;;;;23.20;11.00;;;;;;;15.60;100.00;100877.97;5037663;28;20048;-64
2023/06/30 04:27:26;;;;;;;22.55;12.50;;;;;;;15.60;100.00;100885.78;5036857;28;20025;-63
2023/06/30 04:29:51;;;;;;;24.52;14.68;;;;;;;15.61;100.00;100874.44;5037204;28;20123;-63
2023/06/30 04:32:16;;;;;;;22.58;12.73;;;;;;;15.65;100.00;100877.88;5035224;28;20060;-63
2023/06/30 04:34:42;;;;;;;26.63;13.90;;;;;;;15.66;100.00;100877.84;5037327;28;20139;-63
2023/06/30 04:37:08;;;;;;;21.05;13.20;;;;;;;15.69;100.00;100879.50;5035948;28;20745;-63
2023/06/30 04:39:35;;;;;;;26.55;13.55;;;;;;;15.70;100.00;100883.81;5034766;28;20044;-63
2023/06/30 04:42:00;;;;;;;26.58;13.27;;;;;;;15.68;100.00;100873.44;5035419;28;20116;-63
2023/06/30 04:44:25;;;;;;;16.92;10.85;;;;;;;15.71;100.00;100872.50;5037735;28;20037;-63
2023/06/30 04:46:51;;;;;;;23.52;12.38;;;;;;;15.72;100.00;100885.50;5038808;28;20861;-63
2023/06/30 04:49:16;;;;;;;22.23;12.45;;;;;;;15.72;100.00;100880.28;5036170;28;20197;-63
2023/06/30 04:51:41;;;;;;;23.85;12.07;;;;;;;15.74;100.00;100880.22;5039647;28;20856;-64
2023/06/30 04:54:07;;;;;;;21.10;11.80;;;;;;;15.70;100.00;100881.22;5041244;28;20133;-63
2023/06/30 04:56:32;;;;;;;22.35;11.23;;;;;;;15.70;100.00;100886.44;5039876;28;20104;-63
2023/06/30 04:58:57;;;;;;;21.33;12.52;;;;;;;15.67;100.00;100891.72;5036489;28;20043;-67
2023/06/30 05:01:23;;;;;;;18.52;11.38;;;;;;;15.64;100.00;100891.81;5017950;28;20037;-67
2023/06/30 05:03:48;;;;;;;25.48;13.43;;;;;;;15.67;100.00;100915.19;5036991;28;20660;-68
2023/06/30 05:06:13;;;;;;;21.83;12.45;;;;;;;15.64;100.00;100915.25;5039967;28;20120;-67
2023/06/30 05:08:39;;;;;;;22.20;13.77;;;;;;;15.61;100.00;100910.94;5041931;28;20037;-67
2023/06/30 05:11:05;;;;;;;24.20;13.82;;;;;;;15.62;100.00;100903.97;5039932;28;20029;-66
2023/06/30 05:13:31;;;;;;;22.45;13.55;;;;;;;15.62;100.00;100901.38;5040373;28;20517;-67
2023/06/30 05:15:56;;;;;;;26.48;12.82;;;;;;;15.65;100.00;100893.50;5041959;28;20153;-67
2023/06/30 05:18:22;;;;;;;21.95;14.20;;;;;;;15.67;100.00;100896.94;5044083;28;20202;-67
2023/06/30 05:20:47;;;;;;;25.58;14.32;;;;;;;15.68;100.00;100896.88;5035005;28;20045;-68
2023/06/30 05:23:12;;;;;;;21.20;14.68;;;;;;;15.69;100.00;100893.41;5036212;28;20214;-68
2023/06/30 05:25:38;;;;;;;19.88;13.95;;;;;;;15.70;100.00;100896.84;5041434;28;20152;-68
2023/06/30 05:28:03;;;;;;;26.45;14.52;;;;;;;15.78;100.00;100901.84;5040352;28;20045;-68
2023/06/30 05:30:29;;;;;;;27.48;15.85;;;;;;;15.83;100.00;100902.56;5022660;28;20792;-69
2023/06/30 05:32:54;;;;;;;24.67;16.33;;;;;;;15.86;100.00;100910.31;5037466;28;20071;-68
2023/06/30 05:35:19;;;;;;;24.90;15.50;;;;;;;15.86;100.00;100912.91;5038177;28;20167;-70
2023/06/30 05:37:46;;;;;;;24.05;14.25;;;;;;;15.89;100.00;100912.81;5033053;28;20120;-71
2023/06/30 05:40:12;;;;;;;26.65;14.82;;;;;;;15.96;100.00;100906.56;5034925;28;20041;-71
2023/06/30 05:42:37;;;;;;;21.88;13.98;;;;;;;16.10;100.00;100901.78;5031753;28;20886;-70
2023/06/30 05:45:03;;;;;;;28.70;16.50;;;;;;;16.16;100.00;100891.19;5038861;28;20025;-72
2023/06/30 05:47:28;;;;;;;28.63;16.85;;;;;;;16.22;100.00;100885.78;5048331;28;20068;-71
2023/06/30 05:49:53;;;;;;;28.70;15.25;;;;;;;16.25;100.00;100883.09;5040751;28;20087;-70
2023/06/30 05:52:21;;;;;;;27.02;15.52;;;;;;;16.38;100.00;100884.44;5038121;28;20630;-70
2023/06/30 05:54:47;;;;;;;27.58;15.40;;;;;;;16.33;100.00;100892.41;5045009;28;20040;-70
2023/06/30 05:57:12;;;;;;;29.45;16.92;;;;;;;16.38;100.00;100894.03;5039806;28;20064;-69
2023/06/30 05:59:37;;;;;;;24.38;15.25;;;;;;;16.43;100.00;100895.59;5040595;28;20039;-68
2023/06/30 06:02:03;;;;;;;27.50;14.95;;;;;;;16.52;100.00;100897.94;5031766;28;20037;-68
2023/06/30 06:04:28;;;;;;;26.88;14.65;;;;;;;16.63;100.00;100901.06;5032047;28;20176;-64
2023/06/30 06:06:53;;;;;;;27.63;13.80;;;;;;;16.66;100.00;100903.56;5031549;28;20122;-63
2023/06/30 06:09:19;;;;;;;22.92;12.57;;;;;;;16.77;100.00;100901.50;5037774;28;20029;-63
2023/06/30 06:11:44;;;;;;;23.83;12.48;;;;;;;16.77;100.00;100901.50;5036442;28;20532;-62
2023/06/30 06:14:10;;;;;;;22.13;12.82;;;;;;;16.82;100.00;100893.53;5023397;28;20753;-63
2023/06/30 06:16:35;;;;;;;16.92;10.32;;;;;;;16.91;99.55;100889.78;5038809;28;20044;-64
2023/06/30 06:19:00;;;;;;;12.93;8.52;;;;;;;16.83;93.47;100895.22;5037425;28;20037;-63
2023/06/30 06:21:27;;;;;;;17.58;8.75;;;;;;;17.03;94.01;100899.81;5030079;28;20032;-63
2023/06/30 06:23:56;;;;;;;12.27;8.75;;;;;;;16.98;92.83;100905.19;5031695;28;20033;-62
2023/06/30 06:26:21;;;;;;;18.05;9.07;;;;;;;16.98;93.23;100909.56;5035564;28;20073;-63
2023/06/30 06:28:46;;;;;;;19.30;9.50;;;;;;;16.92;93.62;100915.81;5035191;28;20123;-63
2023/06/30 06:31:12;;;;;;;16.70;9.38;;;;;;;16.89;93.17;100915.91;5039743;28;20041;-62
2023/06/30 06:33:37;;;;;;;16.27;8.98;;;;;;;16.89;92.34;100917.69;5029821;28;20147;-63
2023/06/30 06:36:03;;;;;;;20.48;8.50;;;;;;;16.91;92.79;100915.88;5032489;28;20115;-63
2023/06/30 06:38:28;;;;;;;16.17;8.23;;;;;;;16.88;91.36;100913.38;5017579;28;20032;-62
2023/06/30 06:40:53;;;;;;;15.88;7.55;;;;;;;16.76;88.78;100906.75;5033139;28;20041;-62
2023/06/30 06:43:19;;;;;;;11.32;6.90;;;;;;;16.68;88.94;100904.38;5030813;28;20044;-62
2023/06/30 06:45:46;;;;;;;12.98;7.55;;;;;;;16.67;89.46;100909.66;5035104;28;20039;-62
2023/06/30 06:48:19;;;;;;;17.25;7.47;;;;;;;16.69;89.21;100918.28;5028529;28;20112;-62
2023/06/30 06:50:45;;;;;;;15.38;7.32;;;;;;;16.69;89.13;100907.84;5035796;28;20035;-63
2023/06/30 06:53:18;;;;;;;16.02;7.75;;;;;;;16.80;90.48;100913.63;5035156;28;20065;-63
2023/06/30 06:55:44;;;;;;;14.60;8.35;;;;;;;16.86;88.56;100911.66;5034155;28;20033;-62
2023/06/30 06:58:09;;;;;;;13.70;8.43;;;;;;;16.90;87.70;100908.94;5029344;28;20044;-63
2023/06/30 07:00:35;;;;;;;17.55;7.55;;;;;;;16.95;87.20;100913.13;5026467;28;20029;-62
2023/06/30 07:03:00;;;;;;;14.90;8.32;;;;;;;17.12;87.38;100917.81;5016161;28;20398;-62
2023/06/30 07:05:26;;;;;;;15.25;6.63;;;;;;;17.26;85.89;100903.38;5035406;28;20036;-62
2023/06/30 07:07:51;;;;;;;15.68;7.68;;;;;;;17.40;85.42;100903.75;5034739;28;20047;-62
2023/06/30 07:10:16;;;;;;;14.43;8.57;;;;;;;17.55;84.67;100910.22;5039403;28;20160;-63
2023/06/30 07:12:42;;;;;;;16.00;9.02;;;;;;;17.57;84.12;100916.28;5037837;28;20462;-62
2023/06/30 07:15:08;;;;;;;17.20;8.77;;;;;;;17.67;82.89;100911.56;5038940;28;20079;-63
2023/06/30 07:17:33;;;;;;;18.63;9.07;;;;;;;17.77;81.98;100911.19;5033709;28;20725;-63
2023/06/30 07:19:59;;;;;;;12.93;7.80;;;;;;;17.77;79.89;100892.03;5034519;28;20095;-63
2023/06/30 07:22:25;;;;;;;15.88;8.18;;;;;;;17.78;80.21;100909.44;5035927;28;20674;-63
2023/06/30 07:24:50;;;;;;;18.38;8.98;;;;;;;17.78;79.67;100910.25;5035567;28;20045;-63
2023/06/30 07:27:15;;;;;;;16.77;8.07;;;;;;;17.75;78.51;100910.38;5040129;28;20043;-62
2023/06/30 07:29:41;;;;;;;18.38;7.45;;;;;;;17.78;79.55;100928.56;5036398;28;20068;-64
2023/06/30 07:32:06;;;;;;;13.40;7.90;;;;;;;17.87;80.10;100925.66;5038817;28;20123;-62
2023/06/30 07:34:33;;;;;;;13.45;7.38;;;;;;;17.89;78.52;100913.41;5038214;28;20414;-65
2023/06/30 07:36:59;;;;;;;14.30;8.18;;;;;;;18.01;79.99;100924.31;5020313;28;20040;-63
2023/06/30 07:39:25;;;;;;;15.75;8.30;;;;;;;18.06;79.32;100915.41;5019351;28;20036;-66
2023/06/30 07:41:51;;;;;;;13.65;6.57;;;;;;;17.92;75.21;100891.50;5037414;28;20384;-63
2023/06/30 07:44:17;;;;;;;13.07;6.45;;;;;;;18.02;74.78;100905.13;5041170;28;20060;-63
2023/06/30 07:46:42;;;;;;;13.10;5.85;;;;;;;18.10;76.25;100913.53;5035687;28;20124;-63
2023/06/30 07:49:07;;;;;;;10.68;5.55;;;;;;;18.22;75.01;100911.31;5034650;28;20788;-63
2023/06/30 07:51:33;;;;;;;11.63;5.18;;;;;;;18.14;73.13;100902.03;4998632;28;20033;-63
2023/06/30 07:53:58;;;;;;;16.77;5.60;;;;;;;18.07;71.51;100890.97;5038449;28;20083;-63
2023/06/30 07:56:24;;;;;;;10.57;4.90;;;;;;;18.14;72.73;100925.56;5034316;28;20063;-64
2023/06/30 07:58:49;;;;;;;9.77;4.82;;;;;;;18.31;73.43;100929.28;5039190;28;20052;-63
2023/06/30 08:01:14;;;;;;;12.05;5.40;;;;;;;18.42;72.13;100913.16;5039072;28;20032;-63
2023/06/30 08:03:40;;;;;;;12.13;6.38;;;;;;;18.54;72.36;100931.03;5032238;28;20025;-64
2023/06/30 08:06:05;;;;;;;9.57;5.35;;;;;;;18.72;71.24;100909.38;5036434;28;20072;-63
2023/06/30 08:08:31;;;;;;;8.52;4.35;;;;;;;18.83;68.07;100864.41;5034364;28;20041;-63
2023/06/30 08:10:57;;;;;;;12.25;5.60;;;;;;;18.90;69.62;100900.81;5035046;28;20071;-63
2023/06/30 08:13:22;;;;;;;12.90;5.25;;;;;;;18.86;68.44;100882.66;5032755;28;20041;-64
2023/06/30 08:15:48;;;;;;;13.40;6.47;;;;;;;18.68;69.47;100910.41;5038019;28;20075;-64
2023/06/30 08:18:13;;;;;;;11.95;5.78;;;;;;;18.69;67.99;100887.69;5033778;28;20029;-64
2023/06/30 08:20:39;;;;;;;9.77;5.57;;;;;;;18.56;68.58;100889.94;5035287;28;20045;-64
2023/06/30 08:23:04;;;;;;;12.35;5.15;;;;;;;18.57;69.43;100894.25;5039153;28;20120;-64
2023/06/30 08:25:30;;;;;;;9.55;5.75;;;;;;;18.71;69.52;100894.56;5040210;28;20133;-64
2023/06/30 08:27:55;;;;;;;18.88;6.70;;;;;;;18.64;68.96;100881.78;5035785;28;20047;-64
2023/06/30 08:30:20;;;;;;;12.05;6.00;;;;;;;18.78;69.24;100887.31;5036499;28;20036;-63
2023/06/30 08:32:46;;;;;;;11.48;6.00;;;;;;;18.78;67.66;100855.91;5035723;28;20141;-64
2023/06/30 08:35:11;;;;;;;12.30;5.57;;;;;;;18.95;68.38;100877.91;5035069;28;20147;-64
2023/06/30 08:37:37;;;;;;;10.27;5.68;;;;;;;18.93;65.22;100826.50;5037281;28;20045;-64
2023/06/30 08:40:04;;;;;;;10.75;5.72;;;;;;;19.04;65.60;100853.94;5037253;28;20044;-64
2023/06/30 08:42:31;;;;;;;8.93;4.97;;;;;;;19.15;64.11;100826.41;5034174;28;20021;-63
2023/06/30 08:44:59;;;;;;;8.50;4.90;;;;;;;18.98;64.78;100845.47;5035896;28;20048;-64
2023/06/30 08:47:28;;;;;;;11.05;5.18;;;;;;;19.09;63.91;100834.56;5035119;28;20033;-64
2023/06/30 08:49:54;;;;;;;13.18;4.60;;;;;;;19.12;65.47;100871.13;5030910;28;20033;-63
2023/06/30 08:52:22;;;;;;;10.00;3.92;;;;;;;19.24;64.18;100839.13;5037345;28;20037;-64
2023/06/30 08:54:48;;;;;;;7.88;3.50;;;;;;;19.44;63.63;100837.34;5034860;28;20519;-64
2023/06/30 08:57:15;;;;;;;7.90;3.60;;;;;;;19.46;61.92;100809.31;5035848;28;20022;-64
2023/06/30 08:59:44;;;;;;;8.70;4.25;;;;;;;19.60;60.81;100798.19;5038948;28;20044;-65
2023/06/30 09:02:11;;;;;;;6.75;2.97;;;;;;;19.58;59.99;100793.03;5040242;28;20762;-64
2023/06/30 09:04:38;;;;;;;13.88;3.67;;;;;;;19.62;59.61;100781.47;5040321;28;20037;-64
2023/06/30 09:07:07;;;;;;;10.30;3.17;;;;;;;19.80;60.12;100792.94;5036530;28;20061;-64
2023/06/30 09:09:40;;;;;;;5.60;2.35;;;;;;;19.99;60.40;100811.31;5037650;28;20757;-64
2023/06/30 09:12:08;;;;;;;3.33;1.73;;;;;;;20.00;56.37;100743.03;5037031;28;20025;-64
2023/06/30 09:14:38;;;;;;;10.25;2.55;;;;;;;19.73;55.84;100749.53;5038742;28;20053;-65
2023/06/30 09:17:03;;;;;;;9.57;3.25;;;;;;;19.76;56.14;100754.63;5030562;28;20732;-63
2023/06/30 09:19:29;;;;;;;6.00;2.10;;;;;;;19.78;56.59;100759.81;5034957;28;20043;-63
2023/06/30 09:21:56;;;;;;;5.35;2.05;;;;;;;19.80;55.45;100743.09;5040684;28;20659;-64
2023/06/30 09:24:22;;;;;;;7.20;2.33;;;;;;;19.91;55.99;100753.09;5037810;28;20048;-61
2023/06/30 09:26:49;;;;;;;5.20;1.98;;;;;;;20.21;54.98;100746.41;5039544;28;20029;-61
2023/06/30 09:29:18;;;;;;;5.72;2.38;;;;;;;20.14;55.21;100758.13;5033942;28;20799;-61
2023/06/30 09:31:43;;;;;;;9.10;2.42;;;;;;;19.84;55.36;100749.91;5034002;28;20052;-61
2023/06/30 09:34:13;;;;;;;6.60;2.22;;;;;;;19.76;55.82;100777.38;5017753;28;20037;-61
2023/06/30 09:36:52;;;;;;;5.88;2.25;;;;;;;19.91;55.35;100766.22;5033413;28;20039;-61
2023/06/30 09:39:19;;;;;;;3.40;1.80;;;;;;;20.05;53.06;100721.81;5039344;28;20056;-60
2023/06/30 09:41:46;;;;;;;5.28;1.60;;;;;;;20.16;51.42;100691.50;5034879;28;20048;-61
2023/06/30 09:44:12;;;;;;;5.53;2.10;;;;;;;20.37;52.17;100713.22;5034963;28;20037;-61
2023/06/30 09:46:49;;;;;;;4.00;1.58;;;;;;;20.78;51.99;100707.72;5035778;28;20311;-61
2023/06/30 09:49:32;;;;;;;4.47;1.45;;;;;;;20.87;51.39;100702.81;5033991;28;20037;-61
2023/06/30 09:51:59;;;;;;;4.25;1.70;;;;;;;20.66;51.39;100707.34;5033553;28;20049;-61
2023/06/30 09:54:25;;;;;;;4.82;1.83;;;;;;;20.40;51.76;100706.97;5032058;28;20547;-61
2023/06/30 09:57:03;;;;;;;6.03;1.60;;;;;;;20.55;52.19;100728.06;5035654;28;20482;-61
2023/06/30 09:59:29;;;;;;;4.50;1.60;;;;;;;20.70;49.57;100668.69;5019728;28;20436;-60
2023/06/30 10:01:56;;;;;;;4.90;1.52;;;;;;;20.80;48.92;100674.31;5032409;28;20049;-60
2023/06/30 10:04:22;;;;;;;3.72;1.13;;;;;;;20.87;48.46;100665.19;5030826;28;20515;-61
2023/06/30 10:06:50;;;;;;;6.97;1.60;;;;;;;20.81;49.23;100695.25;5032673;28;20032;-61
2023/06/30 10:09:18;;;;;;;4.07;1.40;;;;;;;20.58;47.57;100650.88;5032348;28;20033;-60
2023/06/30 10:11:44;;;;;;;1.88;0.90;;;;;;;20.75;46.77;100639.56;5033085;28;20044;-61
2023/06/30 10:14:11;;;;;;;2.80;1.30;;;;;;;20.99;44.98;100615.44;5034470;28;20039;-60
2023/06/30 10:16:37;;;;;;;2.42;0.60;;;;;;;21.07;44.53;100608.03;5033215;28;22149;-60
2023/06/30 10:19:04;;;;;;;4.07;1.08;;;;;;;21.36;43.50;100590.66;5030970;28;20099;-61
2023/06/30 10:21:30;;;;;;;3.78;1.20;;;;;;;21.35;43.76;100594.19;5035025;28;20530;-62
2023/06/30 10:23:56;;;;;;;5.15;1.38;;;;;;;21.34;44.43;100615.34;5018703;28;20088;-62
2023/06/30 10:26:23;;;;;;;4.78;1.45;;;;;;;21.36;43.40;100589.78;5030923;28;20041;-62
2023/06/30 10:28:49;;;;;;;3.42;1.17;;;;;;;21.19;43.51;100596.00;5031003;28;20052;-61
2023/06/30 10:31:16;;;;;;;4.07;1.00;;;;;;;21.17;44.34;100608.34;5012288;28;20147;-61
2023/06/30 10:33:41;;;;;;;4.53;1.15;;;;;;;21.33;44.46;100611.00;5017163;28;20044;-61
2023/06/30 10:36:08;;;;;;;1.92;0.90;;;;;;;21.60;44.30;100598.97;5036456;28;20784;-61
2023/06/30 10:38:35;;;;;;;5.88;1.00;;;;;;;21.68;42.56;100565.19;5030543;28;20160;-61
2023/06/30 10:41:19;;;;;;;4.25;1.08;;;;;;;21.79;40.85;100537.31;5037368;28;20040;-62
2023/06/30 10:44:00;;;;;;;3.90;0.95;;;;;;;21.89;40.72;100535.00;5036535;28;20123;-62
2023/06/30 10:46:41;;;;;;;2.70;1.10;;;;;;;21.82;40.25;100527.56;5041981;28;20687;-62
2023/06/30 10:49:06;;;;;;;3.35;1.10;;;;;;;21.87;39.27;100515.84;5035987;28;20079;-61
2023/06/30 10:51:35;;;;;;;2.65;0.90;;;;;;;22.06;39.30;100505.91;5043950;28;20032;-62
2023/06/30 10:54:00;;;;;;;3.30;1.25;;;;;;;22.19;39.94;100538.47;5041024;28;20132;-63
2023/06/30 10:56:27;;;;;;;3.30;1.10;;;;;;;22.13;39.74;100519.56;5037315;28;20412;-61
2023/06/30 10:58:57;;;;;;;5.03;1.08;;;;;;;22.19;40.18;100535.84;5035212;28;20049;-61
2023/06/30 11:01:23;;;;;;;5.03;1.02;;;;;;;22.32;41.74;100559.66;5034774;28;20041;-62
2023/06/30 11:03:58;;;;;;;5.32;1.10;;;;;;;22.61;40.60;100528.94;5034798;28;20111;-62
2023/06/30 11:06:24;;;;;;;;;;;;;;;22.81;39.66;100525.91;5029361;28;20029;-62
2023/06/30 11:09:03;;;;;;;2.28;0.88;;;;;;;22.93;37.00;100467.16;5039425;28;20022;-64